Time;durP1;ratioP1;P1;durP2;ratioP2;P2;SDS_P1;SDS_P2;PMS_P1;PMS_P2;Temp;Humidity;BMP_temperature;BMP_pressure;BME280_temperature;BME280_humidity;BME280_pressure;Samples;Min_cycle;Max_cycle;Signal;HPM_P1;HPM_P2
2024/02/03 12:11:24;;;;;;;;;;;;;;;9.36;92.86;99553.75;106428;1258;60556;-79
2024/02/03 12:13:58;;;;;;;;;;;;;;;9.32;93.11;99554.23;106598;1253;60527;-79
2024/02/03 12:16:32;;;;;;;;;;;;;;;9.50;92.47;99555.09;106605;1253;73301;-79
2024/02/03 12:19:02;;;;;;;;;;;;;;;9.73;90.60;99552.46;106767;1253;70726;-79
2024/02/03 12:21:36;;;;;;;;;;;;;;;9.86;89.24;99555.60;107215;1257;73471;-79
2024/02/03 12:24:10;;;;;;;;;;;;;;;9.88;88.75;99558.52;106504;1257;60786;-79
2024/02/03 12:26:44;;;;;;;;;;;;;;;9.87;89.25;99548.97;106814;1252;60556;-79
2024/02/03 12:29:18;;;;;;;;;;;;;;;9.89;89.08;99552.05;106558;1256;75848;-79
2024/02/03 12:31:51;;;;;;;;;;;;;;;9.93;88.75;99554.06;106670;1253;71027;-79
2024/02/03 12:34:25;;;;;;;;;;;;;;;9.92;88.98;99546.77;106598;1253;71508;-78
2024/02/03 12:37:03;;;;;;;;;;;;;;;10.07;88.09;99541.55;106965;1253;60491;-79
2024/02/03 12:39:37;;;;;;;;;;;;;;;10.08;87.97;99539.92;107017;1252;60823;-78
2024/02/03 12:42:07;;;;;;;;;;;;;;;10.09;87.87;99542.29;106597;1258;76111;-78
2024/02/03 12:44:42;;;;;;;;;;;;;;;9.92;89.03;99537.59;106800;1253;71203;-78
2024/02/03 12:47:15;;;;;;;;;;;;;;;9.75;90.65;99536.39;106576;1253;72819;-78
2024/02/03 12:49:49;;;;;;;;;;;;;;;9.69;91.55;99537.35;106681;1254;60502;-79
2024/02/03 12:52:17;;;;;;;;;;;;;;;9.71;91.77;99533.61;106088;1255;60444;-78
2024/02/03 12:54:52;;;;;;;;;;;;;;;9.86;90.97;99530.16;106298;1256;73847;-79
2024/02/03 12:57:25;;;;;;;;;;;;;;;10.00;90.16;99534.37;106114;1253;68568;-77
2024/02/03 12:59:53;;;;;;;;;;;;;;;9.72;91.44;99530.05;106710;1257;72475;-80
2024/02/03 13:02:28;;;;;;;;;;;;;;;9.63;92.95;99529.10;106562;1252;62948;-77
2024/02/03 13:05:02;;;;;;;;;;;;;;;9.75;92.49;99527.06;106599;1253;61979;-78
2024/02/03 13:07:37;;;;;;;;;;;;;;;9.86;91.88;99532.39;106362;1253;74663;-79
2024/02/03 13:10:08;;;;;;;;;;;;;;;9.85;91.66;99524.60;106108;1257;67107;-78
2024/02/03 13:12:42;;;;;;;;;;;;;;;9.76;92.85;99533.70;106138;1257;72664;-78
2024/02/03 13:15:17;;;;;;;;;;;;;;;9.71;93.34;99524.55;106129;1253;63369;-79
2024/02/03 13:17:51;;;;;;;;;;;;;;;9.69;93.92;99520.50;106129;1253;60786;-78
2024/02/03 13:20:22;;;;;;;;;;;;;;;9.67;94.32;99514.02;106534;1253;74605;-78
2024/02/03 13:22:55;;;;;;;;;;;;;;;9.70;94.51;99518.30;106141;1257;70996;-78
2024/02/03 13:25:29;;;;;;;;;;;;;;;9.78;94.32;99522.48;106058;1253;73803;-79
2024/02/03 13:28:03;;;;;;;;;;;;;;;9.79;94.54;99517.44;106192;1253;60459;-78
2024/02/03 13:30:35;;;;;;;;;;;;;;;9.86;94.36;99518.48;106024;1253;60654;-78
2024/02/03 13:33:11;;;;;;;;;;;;;;;9.97;93.90;99511.54;106380;1253;75028;-78
2024/02/03 13:35:45;;;;;;;;;;;;;;;9.99;93.76;99515.83;106434;1257;68772;-78
2024/02/03 13:38:19;;;;;;;;;;;;;;;10.07;93.53;99512.69;106102;1253;75114;-78
2024/02/03 13:40:47;;;;;;;;;;;;;;;10.07;93.87;99514.55;106081;1253;62944;-77
2024/02/03 13:43:21;;;;;;;;;;;;;;;10.25;93.31;99514.20;106315;1253;62125;-78
2024/02/03 13:45:55;;;;;;;;;;;;;;;10.25;93.42;99508.73;106031;1258;74786;-78
2024/02/03 13:48:29;;;;;;;;;;;;;;;10.22;93.79;99509.42;106155;1256;70464;-78
2024/02/03 13:50:58;;;;;;;;;;;;;;;10.27;93.70;99512.19;106208;1253;73655;-78
2024/02/03 13:53:32;;;;;;;;;;;;;;;10.35;93.10;99513.05;106049;1253;62126;-78
2024/02/03 13:56:06;;;;;;;;;;;;;;;10.41;93.13;99509.52;106195;1253;60511;-78
2024/02/03 13:58:39;;;;;;;;;;;;;;;10.49;92.26;99511.02;106185;1253;72568;-80
2024/02/03 14:01:07;;;;;;;;;;;;;;;10.54;92.15;99500.63;106105;1253;70734;-79
2024/02/03 14:03:41;;;;;;;;;;;;;;;10.51;92.35;99509.42;106010;1253;73119;-79
2024/02/03 14:06:15;;;;;;;;;;;;;;;10.57;92.06;99509.47;106061;1254;60505;-79
2024/02/03 14:08:43;;;;;;;;;;;;;;;10.45;93.06;99507.89;106163;1253;60786;-79
2024/02/03 14:11:17;;;;;;;;;;;;;;;10.46;93.20;99506.52;106072;1252;76228;-79
2024/02/03 14:13:52;;;;;;;;;;;;;;;10.56;92.93;99500.48;106175;1253;70058;-79
2024/02/03 14:16:26;;;;;;;;;;;;;;;10.53;93.04;99507.30;106170;1253;74805;-79
2024/02/03 14:18:54;;;;;;;;;;;;;;;10.69;92.34;99501.75;106069;1253;62065;-80
2024/02/03 14:21:27;;;;;;;;;;;;;;;10.76;91.79;99496.75;106319;1253;60588;-78
2024/02/03 14:24:08;;;;;;;;;;;;;;;10.64;92.74;99502.73;106317;1253;76503;-79
2024/02/03 14:26:42;;;;;;;;;;;;;;;10.67;93.02;99498.70;106294;1253;68396;-79
2024/02/03 14:29:13;;;;;;;;;;;;;;;10.70;92.93;99501.10;106168;1253;71393;-79
2024/02/03 14:31:49;;;;;;;;;;;;;;;10.64;93.62;99499.51;106143;1253;64348;-78
2024/02/03 14:34:24;;;;;;;;;;;;;;;10.68;93.67;99491.58;106448;1256;59984;-78
2024/02/03 14:36:58;;;;;;;;;;;;;;;10.58;94.72;99490.77;106175;1257;73819;-79
2024/02/03 14:39:27;;;;;;;;;;;;;;;10.60;95.28;99485.92;106219;1253;66423;-78
2024/02/03 14:42:06;;;;;;;;;;;;;;;10.76;94.52;99487.78;105968;1253;72682;-78
2024/02/03 14:44:41;;;;;;;;;;;;;;;10.87;93.76;99489.36;106380;1257;61379;-79
2024/02/03 14:47:15;;;;;;;;;;;;;;;10.73;94.57;99489.45;106805;1253;61214;-79
2024/02/03 14:49:44;;;;;;;;;;;;;;;10.67;95.30;99486.95;106722;1257;76432;-79
2024/02/03 14:52:22;;;;;;;;;;;;;;;10.59;96.13;99487.58;106660;1253;69473;-79
2024/02/03 14:54:57;;;;;;;;;;;;;;;10.66;96.15;99486.15;106865;1253;74891;-79
2024/02/03 14:57:31;;;;;;;;;;;;;;;10.57;96.80;99489.26;106824;1253;63859;-79
2024/02/03 15:00:00;;;;;;;;;;;;;;;10.57;97.02;99479.55;106635;1252;61124;-78
2024/02/03 15:02:35;;;;;;;;;;;;;;;10.57;97.25;99484.58;106663;1253;73466;-79
2024/02/03 15:05:11;;;;;;;;;;;;;;;10.57;97.60;99479.05;106598;1253;71539;-79
2024/02/03 15:07:47;;;;;;;;;;;;;;;10.54;98.25;99477.25;107315;1253;71415;-79
2024/02/03 15:10:22;;;;;;;;;;;;;;;10.55;98.30;99479.95;106433;1253;61355;-78
2024/02/03 15:12:57;;;;;;;;;;;;;;;10.54;98.87;99481.99;106602;1257;61159;-78
2024/02/03 15:15:33;;;;;;;;;;;;;;;10.50;99.54;99484.37;106663;1253;74697;-78
2024/02/03 15:18:09;;;;;;;;;;;;;;;10.61;99.36;99485.04;106843;1253;70991;-78
2024/02/03 15:20:44;;;;;;;;;;;;;;;10.70;98.86;99487.04;106867;1253;76451;-78
2024/02/03 15:23:18;;;;;;;;;;;;;;;10.77;98.72;99479.98;106603;1259;64545;-78
2024/02/03 15:25:53;;;;;;;;;;;;;;;10.94;97.70;99488.42;106083;1253;61466;-78
2024/02/03 15:28:28;;;;;;;;;;;;;;;10.91;97.79;99487.98;106123;1253;76755;-78
2024/02/03 15:31:08;;;;;;;;;;;;;;;10.83;98.93;99490.40;106005;1253;71145;-78
2024/02/03 15:33:36;;;;;;;;;;;;;;;10.89;99.20;99488.50;106070;1253;72642;-78
2024/02/03 15:36:13;;;;;;;;;;;;;;;11.01;98.53;99496.52;106087;1256;61335;-78
2024/02/03 15:38:49;;;;;;;;;;;;;;;11.14;97.58;99495.65;106243;1253;62126;-79
2024/02/03 15:41:24;;;;;;;;;;;;;;;11.13;97.77;99497.64;107601;1253;75635;-79
2024/02/03 15:43:53;;;;;;;;;;;;;;;11.18;98.07;99500.10;106531;1253;69907;-79
2024/02/03 15:46:29;;;;;;;;;;;;;;;11.34;97.29;99501.18;106270;1253;75009;-79
2024/02/03 15:49:17;;;;;;;;;;;;;;;11.32;97.39;99499.13;106186;1253;63906;-78
2024/02/03 15:51:53;;;;;;;;;;;;;;;11.22;98.25;99495.70;106281;1256;62112;-78
2024/02/03 15:54:21;;;;;;;;;;;;;;;11.28;98.21;99491.75;107285;1254;75774;-78
2024/02/03 15:56:57;;;;;;;;;;;;;;;11.23;98.74;99497.60;106311;1253;69399;-78
2024/02/03 15:59:32;;;;;;;;;;;;;;;11.29;98.28;99493.58;108619;1257;71393;-79
2024/02/03 16:02:08;;;;;;;;;;;;;;;11.48;97.19;99504.44;106154;1253;61251;-79
2024/02/03 16:04:38;;;;;;;;;;;;;;;11.48;97.23;99501.76;106810;1253;62121;-79
2024/02/03 16:07:13;;;;;;;;;;;;;;;11.42;97.76;99506.15;106115;1253;76658;-79
2024/02/03 16:09:48;;;;;;;;;;;;;;;11.39;98.26;99505.78;106164;1253;70296;-78
2024/02/03 16:12:23;;;;;;;;;;;;;;;11.40;98.42;99511.34;106017;1253;73700;-79
2024/02/03 16:14:52;;;;;;;;;;;;;;;11.52;97.91;99509.04;105950;1254;63979;-78
2024/02/03 16:17:28;;;;;;;;;;;;;;;11.60;97.19;99506.98;106604;1255;62197;-78
2024/02/03 16:20:04;;;;;;;;;;;;;;;11.68;96.89;99501.03;106048;1254;76663;-78
2024/02/03 16:22:32;;;;;;;;;;;;;;;11.57;97.61;99500.00;106144;1254;69639;-78
2024/02/03 16:25:09;;;;;;;;;;;;;;;11.49;98.51;99501.38;106107;1253;74878;-78
2024/02/03 16:27:47;;;;;;;;;;;;;;;11.52;98.65;99495.09;106369;1253;62894;-78
2024/02/03 16:30:19;;;;;;;;;;;;;;;11.56;98.66;99494.23;106051;1256;61151;-78
2024/02/03 16:32:49;;;;;;;;;;;;;;;11.57;98.89;99493.98;106122;1253;76978;-77
2024/02/03 16:35:25;;;;;;;;;;;;;;;11.62;98.60;99494.64;106248;1253;68245;-78
2024/02/03 16:38:00;;;;;;;;;;;;;;;11.64;98.67;99485.92;106822;1257;73801;-79
2024/02/03 16:40:34;;;;;;;;;;;;;;;11.73;98.44;99489.36;105983;1253;63008;-78
2024/02/03 16:43:03;;;;;;;;;;;;;;;11.64;99.45;99501.38;106114;1253;61907;-78
2024/02/03 16:45:40;;;;;;;;;;;;;;;11.59;99.91;99493.81;106045;1259;76966;-78
2024/02/03 16:48:15;;;;;;;;;;;;;;;11.63;99.86;99488.66;105951;1253;70651;-78
2024/02/03 16:50:49;;;;;;;;;;;;;;;11.83;98.96;99489.50;106710;1256;75222;-78
2024/02/03 16:53:18;;;;;;;;;;;;;;;12.03;97.27;99480.73;106275;1253;61232;-78
2024/02/03 16:55:54;;;;;;;;;;;;;;;12.04;97.23;99481.48;106220;1256;61160;-77
2024/02/03 16:58:29;;;;;;;;;;;;;;;12.05;97.35;99481.05;106119;1259;76946;-77
2024/02/03 17:00:56;;;;;;;;;;;;;;;12.07;97.85;99487.71;106145;1259;70559;-78
2024/02/03 17:03:32;;;;;;;;;;;;;;;12.12;97.70;99489.63;106017;1253;74224;-77
2024/02/03 17:06:07;;;;;;;;;;;;;;;12.26;96.96;99482.50;106328;1252;63860;-78
2024/02/03 17:08:42;;;;;;;;;;;;;;;12.26;96.63;99485.48;106147;1257;62139;-78
2024/02/03 17:11:12;;;;;;;;;;;;;;;12.21;97.24;99477.77;106255;1257;76601;-77
2024/02/03 17:13:47;;;;;;;;;;;;;;;12.17;97.60;99474.98;106213;1256;68349;-78
2024/02/03 17:16:22;;;;;;;;;;;;;;;12.16;97.97;99472.38;106136;1254;75102;-78
2024/02/03 17:18:58;;;;;;;;;;;;;;;12.21;97.59;99474.66;106495;1253;63947;-78
2024/02/03 17:21:27;;;;;;;;;;;;;;;12.20;97.84;99473.14;106236;1256;61771;-78
2024/02/03 17:24:06;;;;;;;;;;;;;;;12.19;98.18;99476.63;106570;1256;76531;-78
2024/02/03 17:26:43;;;;;;;;;;;;;;;12.17;98.41;99480.17;106321;1253;70657;-78
2024/02/03 17:29:18;;;;;;;;;;;;;;;12.18;98.82;99482.85;106183;1253;74836;-77
2024/02/03 17:31:47;;;;;;;;;;;;;;;12.12;99.30;99490.48;106219;1256;61947;-77
2024/02/03 17:34:22;;;;;;;;;;;;;;;12.10;99.97;99484.25;106066;1255;61341;-77
2024/02/03 17:36:58;;;;;;;;;;;;;;;12.26;99.08;99480.00;106175;1258;76598;-78
2024/02/03 17:39:26;;;;;;;;;;;;;;;12.39;97.81;99486.19;106294;1259;69115;-78
2024/02/03 17:42:02;;;;;;;;;;;;;;;12.31;98.28;99478.45;106286;1258;73606;-78
2024/02/03 17:44:42;;;;;;;;;;;;;;;12.35;98.29;99486.84;106222;1253;62250;-78
2024/02/03 17:47:19;;;;;;;;;;;;;;;12.24;98.90;99481.80;106404;1253;61190;-78
2024/02/03 17:49:48;;;;;;;;;;;;;;;12.32;98.70;99476.55;106293;1258;76869;-78
2024/02/03 17:52:24;;;;;;;;;;;;;;;12.39;98.14;99485.52;109350;1253;69719;-78
2024/02/03 17:55:00;;;;;;;;;;;;;;;12.39;98.33;99478.00;106961;1257;73748;-78
2024/02/03 17:57:34;;;;;;;;;;;;;;;12.52;97.53;99473.62;106343;1253;62514;-78
2024/02/03 18:00:04;;;;;;;;;;;;;;;12.51;97.74;99471.98;106202;1253;61309;-78
2024/02/03 18:02:45;;;;;;;;;;;;;;;12.68;96.48;99462.35;106154;1256;74649;-79
2024/02/03 18:05:21;;;;;;;;;;;;;;;12.65;96.35;99462.98;105878;1253;70777;-77
2024/02/03 18:07:55;;;;;;;;;;;;;;;12.67;96.35;99465.31;105958;1253;73962;-78
2024/02/03 18:10:24;;;;;;;;;;;;;;;12.59;96.72;99459.71;106277;1253;63812;-77
2024/02/03 18:12:59;;;;;;;;;;;;;;;12.66;96.17;99465.31;106264;1258;61210;-78
2024/02/03 18:15:35;;;;;;;;;;;;;;;12.75;95.82;99471.89;106338;1256;75495;-78
2024/02/03 18:18:03;;;;;;;;;;;;;;;12.80;95.42;99465.36;106151;1253;67991;-78
2024/02/03 18:20:39;;;;;;;;;;;;;;;12.77;95.66;99463.10;105974;1259;73731;-79
2024/02/03 18:23:14;;;;;;;;;;;;;;;12.76;95.82;99461.55;106027;1253;63137;-78
2024/02/03 18:25:47;;;;;;;;;;;;;;;12.63;96.43;99466.45;106300;1253;61427;-78
2024/02/03 18:28:18;;;;;;;;;;;;;;;12.64;96.95;99469.28;106179;1253;74828;-78
2024/02/03 18:30:55;;;;;;;;;;;;;;;12.70;96.73;99472.16;105974;1253;70209;-78
2024/02/03 18:33:30;;;;;;;;;;;;;;;12.65;97.36;99470.83;106110;1258;74288;-78
2024/02/03 18:36:05;;;;;;;;;;;;;;;12.70;97.43;99469.81;106109;1256;62333;-78
2024/02/03 18:38:34;;;;;;;;;;;;;;;12.78;96.90;99471.52;106203;1253;62154;-79
2024/02/03 18:41:09;;;;;;;;;;;;;;;12.84;96.79;99473.27;106223;1258;75659;-79
2024/02/03 18:43:45;;;;;;;;;;;;;;;12.96;95.79;99471.34;109234;1256;71089;-79
2024/02/03 18:46:12;;;;;;;;;;;;;;;13.01;95.34;99472.94;106154;1254;72754;-79
2024/02/03 18:48:48;;;;;;;;;;;;;;;13.06;95.00;99473.55;106157;1255;63256;-78
2024/02/03 18:51:23;;;;;;;;;;;;;;;13.11;94.67;99472.63;106133;1255;61736;-78
2024/02/03 18:53:57;;;;;;;;;;;;;;;13.18;94.31;99474.52;106536;1253;74640;-78
2024/02/03 18:56:27;;;;;;;;;;;;;;;13.26;93.92;99481.55;106196;1258;69921;-78
2024/02/03 18:59:02;;;;;;;;;;;;;;;13.38;92.65;99481.08;106070;1259;74841;-78
2024/02/03 19:01:37;;;;;;;;;;;;;;;13.29;92.95;99481.06;106221;1253;63864;-78
2024/02/03 19:04:05;;;;;;;;;;;;;;;13.18;93.93;99480.92;106606;1253;61254;-77
2024/02/03 19:06:41;;;;;;;;;;;;;;;13.25;93.70;99482.15;106211;1253;76671;-78
2024/02/03 19:09:16;;;;;;;;;;;;;;;13.38;92.55;99484.77;106347;1253;69594;-78
2024/02/03 19:11:55;;;;;;;;;;;;;;;13.33;93.04;99480.80;107059;1254;74836;-78
2024/02/03 19:14:35;;;;;;;;;;;;;;;13.50;91.68;99491.14;106205;1256;62811;-78
2024/02/03 19:17:15;;;;;;;;;;;;;;;13.46;91.73;99490.00;106110;1259;61354;-78
2024/02/03 19:19:55;;;;;;;;;;;;;;;13.36;92.28;99485.20;106140;1259;75777;-78
2024/02/03 19:22:35;;;;;;;;;;;;;;;13.38;92.40;99476.08;106065;1252;70138;-80
2024/02/03 19:25:15;;;;;;;;;;;;;;;13.44;91.99;99471.67;105972;1253;74827;-78
2024/02/03 19:27:55;;;;;;;;;;;;;;;13.49;91.88;99467.11;106191;1253;62046;-78
2024/02/03 19:30:35;;;;;;;;;;;;;;;13.54;91.50;99474.60;106335;1253;61231;-80
2024/02/03 19:33:15;;;;;;;;;;;;;;;13.58;91.42;99478.64;106089;1259;75508;-79
2024/02/03 19:35:56;;;;;;;;;;;;;;;13.49;92.04;99477.00;106542;1253;70921;-79
2024/02/03 19:38:35;;;;;;;;;;;;;;;13.44;92.78;99476.44;106791;1253;74974;-78
2024/02/03 19:41:16;;;;;;;;;;;;;;;13.39;93.43;99477.47;109150;1253;62654;-78
2024/02/03 19:43:56;;;;;;;;;;;;;;;13.43;93.23;99478.19;109161;1257;61226;-78
2024/02/03 19:46:37;;;;;;;;;;;;;;;13.21;95.06;99479.80;108543;1256;75869;-78
2024/02/03 19:49:17;;;;;;;;;;;;;;;13.33;95.17;99477.98;107303;1257;71472;-77
2024/02/03 19:51:57;;;;;;;;;;;;;;;13.39;94.83;99477.44;106218;1254;72865;-77
2024/02/03 19:54:37;;;;;;;;;;;;;;;13.42;94.41;99479.70;106178;1258;61598;-77
2024/02/03 19:57:17;;;;;;;;;;;;;;;13.37;94.98;99473.88;106235;1254;61299;-78
2024/02/03 19:59:57;;;;;;;;;;;;;;;13.41;94.79;99472.52;106346;1256;76541;-78
2024/02/03 20:02:37;;;;;;;;;;;;;;;13.42;95.05;99469.05;106094;1258;71382;-78
2024/02/03 20:05:17;;;;;;;;;;;;;;;13.41;95.33;99478.15;106041;1258;73749;-78
2024/02/03 20:07:59;;;;;;;;;;;;;;;13.39;95.47;99470.02;106448;1254;62649;-78
2024/02/03 20:10:39;;;;;;;;;;;;;;;13.42;95.80;99474.83;106336;1253;61464;-79
2024/02/03 20:13:20;;;;;;;;;;;;;;;13.46;95.58;99480.16;106216;1259;76998;-78
2024/02/03 20:16:00;;;;;;;;;;;;;;;13.53;95.85;99493.53;109316;1256;71225;-79
2024/02/03 20:18:41;;;;;;;;;;;;;;;13.61;94.93;99479.48;107933;1258;73878;-79
2024/02/03 20:21:21;;;;;;;;;;;;;;;13.52;95.40;99484.81;109166;1253;64003;-79
2024/02/03 20:24:01;;;;;;;;;;;;;;;13.55;95.13;99473.93;109085;1253;61035;-79
2024/02/03 20:26:41;;;;;;;;;;;;;;;13.56;94.94;99471.73;106146;1257;77001;-79
2024/02/03 20:29:21;;;;;;;;;;;;;;;13.63;94.11;99470.34;106166;1256;68387;-79
2024/02/03 20:32:00;;;;;;;;;;;;;;;13.73;93.46;99470.86;106409;1259;74983;-78
2024/02/03 20:34:40;;;;;;;;;;;;;;;13.75;92.80;99471.17;106161;1254;61295;-78
2024/02/03 20:37:20;;;;;;;;;;;;;;;13.58;93.33;99473.54;109242;1254;59756;-79
2024/02/03 20:40:00;;;;;;;;;;;;;;;13.53;93.64;99474.56;109238;1254;76822;-78
2024/02/03 20:42:40;;;;;;;;;;;;;;;13.52;93.56;99480.64;109015;1256;72055;-78
2024/02/03 20:45:20;;;;;;;;;;;;;;;13.66;92.47;99478.99;106166;1257;72684;-78
2024/02/03 20:48:00;;;;;;;;;;;;;;;13.61;92.44;99483.09;106323;1252;63340;-78
2024/02/03 20:50:41;;;;;;;;;;;;;;;13.67;91.98;99483.57;106152;1257;61176;-78
2024/02/03 20:53:22;;;;;;;;;;;;;;;13.55;93.22;99487.14;106361;1256;77038;-78
2024/02/03 20:56:03;;;;;;;;;;;;;;;13.58;93.73;99487.75;106023;1257;67443;-78
2024/02/03 20:58:42;;;;;;;;;;;;;;;13.75;92.97;99483.32;106135;1257;72373;-78
2024/02/03 21:01:22;;;;;;;;;;;;;;;13.67;93.12;99481.27;106065;1258;61765;-78
2024/02/03 21:04:03;;;;;;;;;;;;;;;13.65;93.72;99477.61;106084;1253;61154;-78
2024/02/03 21:06:43;;;;;;;;;;;;;;;13.65;94.32;99478.15;106442;1258;75574;-78
2024/02/03 21:09:23;;;;;;;;;;;;;;;13.54;94.93;99482.55;106265;1260;70221;-78
2024/02/03 21:12:03;;;;;;;;;;;;;;;13.51;95.36;99482.23;106165;1260;73949;-78
2024/02/03 21:14:44;;;;;;;;;;;;;;;13.59;95.50;99484.74;106091;1259;62357;-78
2024/02/03 21:17:24;;;;;;;;;;;;;;;13.62;95.29;99478.91;106118;1260;62000;-78
2024/02/03 21:20:05;;;;;;;;;;;;;;;13.67;95.07;99482.96;106197;1254;74934;-78
2024/02/03 21:22:46;;;;;;;;;;;;;;;13.69;94.93;99486.04;106355;1259;69733;-78
2024/02/03 21:25:26;;;;;;;;;;;;;;;13.79;94.02;99482.38;105965;1258;73583;-78
2024/02/03 21:28:06;;;;;;;;;;;;;;;13.80;93.53;99475.38;106236;1259;61253;-78
2024/02/03 21:30:46;;;;;;;;;;;;;;;13.95;91.98;99482.88;106287;1260;61316;-78
2024/02/03 21:33:26;;;;;;;;;;;;;;;13.97;91.04;99485.73;106062;1254;75671;-78
2024/02/03 21:35:54;;;;;;;;;;;;;;;13.96;90.70;99485.10;106132;1253;69704;-78
2024/02/03 21:38:34;;;;;;;;;;;;;;;14.04;90.01;99486.38;106608;1254;75057;-78
2024/02/03 21:41:13;;;;;;;;;;;;;;;14.11;89.25;99486.32;106117;1254;62388;-78
2024/02/03 21:43:57;;;;;;;;;;;;;;;14.12;88.64;99488.72;106082;1258;61841;-78
2024/02/03 21:46:37;;;;;;;;;;;;;;;14.12;88.07;99485.19;105985;1254;74708;-78
2024/02/03 21:49:16;;;;;;;;;;;;;;;14.00;88.68;99480.58;106351;1257;67102;-78
2024/02/03 21:51:56;;;;;;;;;;;;;;;13.93;88.93;99482.30;106046;1255;72679;-78
2024/02/03 21:54:36;;;;;;;;;;;;;;;13.86;89.64;99480.61;106070;1259;61385;-78
2024/02/03 21:57:16;;;;;;;;;;;;;;;13.65;91.09;99480.77;106165;1254;62478;-78
2024/02/03 21:59:55;;;;;;;;;;;;;;;13.74;90.75;99478.02;106489;1258;74677;-77
2024/02/03 22:02:35;;;;;;;;;;;;;;;13.79;89.93;99470.08;106038;1254;68392;-78
2024/02/03 22:05:15;;;;;;;;;;;;;;;13.83;90.07;99473.63;106142;1258;73151;-78
2024/02/03 22:07:55;;;;;;;;;;;;;;;13.86;90.10;99465.92;105999;1257;61694;-77
2024/02/03 22:10:34;;;;;;;;;;;;;;;14.18;87.83;99460.09;106523;1259;61388;-78
2024/02/03 22:13:14;;;;;;;;;;;;;;;14.21;87.01;99452.13;106111;1259;74654;-78
2024/02/03 22:15:54;;;;;;;;;;;;;;;14.26;86.44;99450.52;106088;1258;68712;-78
2024/02/03 22:18:34;;;;;;;;;;;;;;;14.22;86.50;99461.17;106364;1257;72434;-79
2024/02/03 22:21:13;;;;;;;;;;;;;;;14.14;87.27;99462.91;106328;1255;61273;-78
2024/02/03 22:23:53;;;;;;;;;;;;;;;14.24;86.77;99455.54;106210;1255;61347;-78
2024/02/03 22:26:33;;;;;;;;;;;;;;;14.24;86.72;99438.27;105991;1260;74612;-78
2024/02/03 22:29:13;;;;;;;;;;;;;;;14.30;86.40;99436.55;105946;1259;67178;-79
2024/02/03 22:32:07;;;;;;;;;;;;;;;14.29;86.34;99446.73;106016;1257;71401;-78
2024/02/03 22:34:47;;;;;;;;;;;;;;;14.27;86.04;99443.42;106022;1254;61267;-78
2024/02/03 22:37:27;;;;;;;;;;;;;;;14.35;85.60;99445.95;106080;1258;61437;-78
2024/02/03 22:40:07;;;;;;;;;;;;;;;14.35;85.20;99443.05;105924;1255;74657;-79
2024/02/03 22:42:46;;;;;;;;;;;;;;;14.23;85.36;99443.16;106182;1253;68520;-79
2024/02/03 22:45:27;;;;;;;;;;;;;;;14.14;85.37;99437.54;106040;1254;71640;-79
2024/02/03 22:48:07;;;;;;;;;;;;;;;14.03;85.97;99443.12;106007;1254;61327;-79
2024/02/03 22:50:47;;;;;;;;;;;;;;;13.96;86.47;99444.72;106137;1253;61238;-79
2024/02/03 22:53:27;;;;;;;;;;;;;;;13.99;86.20;99446.56;106184;1257;74656;-79
2024/02/03 22:56:06;;;;;;;;;;;;;;;13.97;86.46;99446.08;107857;1254;68406;-79
2024/02/03 22:58:46;;;;;;;;;;;;;;;13.92;87.00;99448.51;106061;1254;72630;-79
2024/02/03 23:01:26;;;;;;;;;;;;;;;13.75;87.97;99438.85;105984;1254;61647;-79
2024/02/03 23:04:05;;;;;;;;;;;;;;;13.86;87.41;99443.61;105964;1257;61378;-79
2024/02/03 23:06:45;;;;;;;;;;;;;;;13.86;87.18;99426.33;106106;1259;74576;-79
2024/02/03 23:09:25;;;;;;;;;;;;;;;13.93;86.72;99422.26;106031;1257;68080;-79
2024/02/03 23:12:05;;;;;;;;;;;;;;;13.90;86.92;99421.53;106054;1254;72747;-78
2024/02/03 23:14:45;;;;;;;;;;;;;;;13.94;86.84;99424.27;106056;1254;61355;-78
2024/02/03 23:17:25;;;;;;;;;;;;;;;13.98;86.20;99422.48;106236;1257;61299;-78
2024/02/03 23:20:05;;;;;;;;;;;;;;;13.92;86.43;99418.85;106081;1253;74658;-78
2024/02/03 23:22:45;;;;;;;;;;;;;;;13.94;85.44;99416.94;106008;1254;68661;-78
2024/02/03 23:25:26;;;;;;;;;;;;;;;13.93;84.31;99414.06;106008;1257;73140;-78
2024/02/03 23:28:07;;;;;;;;;;;;;;;14.00;82.63;99418.45;105897;1254;245698;-78
2024/02/03 23:30:47;;;;;;;;;;;;;;;14.02;81.67;99420.46;106517;1254;61299;-78
2024/02/03 23:33:27;;;;;;;;;;;;;;;14.00;80.97;99421.48;106227;1254;74718;-78
2024/02/03 23:36:07;;;;;;;;;;;;;;;13.96;80.62;99423.59;105971;1257;70699;-78
2024/02/03 23:38:47;;;;;;;;;;;;;;;13.86;80.47;99426.08;106056;1253;72773;-79
2024/02/03 23:41:15;;;;;;;;;;;;;;;13.86;80.30;99428.66;106029;1254;61266;-78
2024/02/03 23:43:54;;;;;;;;;;;;;;;13.88;80.02;99433.60;106074;1257;61271;-78
2024/02/03 23:46:34;;;;;;;;;;;;;;;13.88;80.37;99438.40;106106;1254;73335;-78
2024/02/03 23:49:09;;;;;;;;;;;;;;;13.83;81.09;99439.03;105884;1254;67255;-79
2024/02/03 23:51:43;;;;;;;;;;;;;;;13.79;81.76;99441.22;106079;1254;72647;-78
2024/02/03 23:54:23;;;;;;;;;;;;;;;13.67;82.84;99439.05;106075;1254;61351;-79
2024/02/03 23:57:02;;;;;;;;;;;;;;;13.63;83.19;99437.79;106143;1254;61282;-78
2024/02/03 23:59:36;;;;;;;;;;;;;;;13.61;83.37;99437.99;105992;1254;74590;-78
